createdAt,value
2023-01-08T00:00:53.022Z,101373.56
2023-01-08T00:02:15.987Z,101366.84
2023-01-08T00:03:19.082Z,101363.29
2023-01-08T00:04:22.136Z,101360.80
2023-01-08T00:05:25.168Z,101365.36
2023-01-08T00:06:28.403Z,101367.98
2023-01-08T00:07:31.594Z,101369.73
2023-01-08T00:08:34.998Z,101371.98
2023-01-08T00:09:38.027Z,101367.57
2023-01-08T00:10:41.174Z,101369.08
2023-01-08T00:11:44.526Z,101365.57
2023-01-08T00:12:47.592Z,101364.67
2023-01-08T00:13:50.776Z,101360.02
2023-01-08T00:14:54.003Z,101358.03
2023-01-08T00:15:56.974Z,101351.41
2023-01-08T00:16:59.985Z,101355.49
2023-01-08T00:18:05.434Z,101350.75
2023-01-08T00:19:11.778Z,101356.33
2023-01-08T00:20:14.950Z,101354.41
2023-01-08T00:21:18.018Z,101359.28
2023-01-08T00:22:20.984Z,101355.90
2023-01-08T00:23:24.075Z,101355.53
2023-01-08T00:24:27.183Z,101362.77
2023-01-08T00:25:30.142Z,101362.77
2023-01-08T00:26:33.334Z,101360.67
2023-01-08T00:27:36.357Z,101358.41
2023-01-08T00:28:40.197Z,101359.12
2023-01-08T00:29:43.227Z,101355.76
2023-01-08T00:30:46.418Z,101353.46
2023-01-08T00:31:49.568Z,101349.48
2023-01-08T00:32:53.215Z,101347.65
2023-01-08T00:33:56.154Z,101345.38
2023-01-08T00:34:59.135Z,101344.05
2023-01-08T00:36:11.921Z,101345.27
2023-01-08T00:37:18.901Z,101346.27
2023-01-08T00:38:29.197Z,101346.08
2023-01-08T00:39:32.561Z,101349.42
2023-01-08T00:40:36.208Z,101349.29
2023-01-08T00:41:39.469Z,101349.33
2023-01-08T00:42:43.234Z,101348.48
2023-01-08T00:43:46.671Z,101350.45
2023-01-08T00:44:49.803Z,101350.19
2023-01-08T00:45:54.024Z,101349.79
2023-01-08T00:46:57.241Z,101345.89
2023-01-08T00:48:00.361Z,101347.34
2023-01-08T00:49:03.469Z,101345.77
2023-01-08T00:50:07.068Z,101346.59
2023-01-08T00:51:10.100Z,101345.85
2023-01-08T00:52:12.997Z,101341.83
2023-01-08T00:53:16.085Z,101342.46
2023-01-08T00:54:19.065Z,101342.08
2023-01-08T00:55:22.238Z,101342.34
2023-01-08T00:56:25.224Z,101342.13
2023-01-08T00:57:33.666Z,101344.08
2023-01-08T00:58:37.280Z,101342.09
2023-01-08T00:59:40.579Z,101345.71
2023-01-08T01:00:43.600Z,101345.70
2023-01-08T01:01:47.081Z,101342.35
2023-01-08T01:02:50.178Z,101340.69
2023-01-08T01:03:53.447Z,101339.23
2023-01-08T01:04:56.542Z,101340.42
2023-01-08T01:06:04.318Z,101342.39
2023-01-08T01:07:07.384Z,101338.89
2023-01-08T01:08:10.531Z,101342.42
2023-01-08T01:09:13.638Z,101344.80
2023-01-08T01:10:17.695Z,101344.19
2023-01-08T01:11:24.340Z,101341.65
2023-01-08T01:12:27.357Z,101341.15
2023-01-08T01:13:30.285Z,101338.42
2023-01-08T01:14:33.362Z,101337.57
2023-01-08T01:15:36.288Z,101337.31
2023-01-08T01:16:41.381Z,101335.69
2023-01-08T01:17:46.025Z,101334.83
2023-01-08T01:18:49.523Z,101334.63
2023-01-08T01:19:52.560Z,101332.42
2023-01-08T01:20:55.746Z,101326.68
2023-01-08T01:21:59.471Z,101330.67
2023-01-08T01:23:04.396Z,101327.23
2023-01-08T01:24:08.150Z,101324.27
2023-01-08T01:25:11.765Z,101321.85
2023-01-08T01:26:20.185Z,101318.14
2023-01-08T01:27:26.150Z,101315.77
2023-01-08T01:28:29.075Z,101312.02
2023-01-08T01:29:32.210Z,101307.20
2023-01-08T01:30:35.320Z,101302.13
2023-01-08T01:31:38.403Z,101302.80
2023-01-08T01:32:41.608Z,101299.63
2023-01-08T01:33:45.379Z,101294.62
2023-01-08T01:34:48.435Z,101293.69
2023-01-08T01:35:59.988Z,101293.46
2023-01-08T01:37:04.529Z,101292.52
2023-01-08T01:38:07.608Z,101290.27
2023-01-08T01:39:10.752Z,101285.98
2023-01-08T01:40:13.709Z,101282.13
2023-01-08T01:41:29.214Z,101282.34
2023-01-08T01:42:40.909Z,101278.10
2023-01-08T01:43:44.096Z,101273.39
2023-01-08T01:44:47.211Z,101273.69
2023-01-08T01:45:50.452Z,101268.50
2023-01-08T01:46:53.536Z,101264.25
2023-01-08T01:48:03.852Z,101269.68
2023-01-08T01:49:12.004Z,101261.99
2023-01-08T01:50:20.278Z,101265.10
2023-01-08T01:51:29.454Z,101262.99
2023-01-08T01:52:36.883Z,101265.25
2023-01-08T01:53:41.627Z,101262.66
2023-01-08T02:33:29.845Z,101246.55
2023-01-08T02:34:33.101Z,101248.73
2023-01-08T02:35:41.080Z,101243.29
2023-01-08T02:36:47.064Z,101244.81
2023-01-08T02:37:50.106Z,101244.64
2023-01-08T02:39:02.050Z,101241.65
2023-01-08T02:40:23.100Z,101241.42
2023-01-08T02:41:40.807Z,101237.80
2023-01-08T02:43:00.255Z,101237.48
2023-01-08T02:44:05.888Z,101230.14
2023-01-08T02:45:37.256Z,101227.52
2023-01-08T02:46:42.036Z,101223.20
2023-01-08T02:48:16.611Z,101220.57
2023-01-08T02:49:21.450Z,101221.69
2023-01-08T02:50:51.789Z,101223.02
2023-01-08T02:51:57.595Z,101218.64
2023-01-08T02:53:13.267Z,101220.01
2023-01-08T02:54:27.726Z,101219.56
2023-01-08T02:55:34.707Z,101218.67
2023-01-08T02:56:43.397Z,101220.40
2023-01-08T02:57:47.523Z,101222.08
2023-01-08T02:58:53.522Z,101221.17
2023-01-08T02:59:57.768Z,101220.98
2023-01-08T03:01:08.250Z,101220.69
2023-01-08T03:02:12.337Z,101217.54
2023-01-08T03:03:23.958Z,101219.52
2023-01-08T03:04:31.160Z,101220.85
2023-01-08T03:05:35.143Z,101220.58
2023-01-08T03:06:38.775Z,101222.48
2023-01-08T03:07:41.814Z,101222.11
2023-01-08T03:08:48.270Z,101223.48
2023-01-08T03:09:51.578Z,101221.58
2023-01-08T03:11:05.327Z,101218.76
2023-01-08T03:12:15.524Z,101216.44
2023-01-08T03:13:31.225Z,101218.38
2023-01-08T03:14:47.621Z,101217.71
2023-01-08T03:15:56.520Z,101215.67
2023-01-08T03:17:12.051Z,101220.04
2023-01-08T03:18:21.232Z,101220.14
2023-01-08T03:19:37.009Z,101214.29
2023-01-08T03:20:40.932Z,101219.34
2023-01-08T03:21:45.471Z,101215.66
2023-01-08T03:22:52.375Z,101211.27
2023-01-08T03:23:57.355Z,101211.77
2023-01-08T03:25:02.194Z,101210.88
2023-01-08T03:26:07.304Z,101211.25
2023-01-08T03:27:16.515Z,101208.11
2023-01-08T03:28:33.810Z,101211.30
2023-01-08T03:29:40.051Z,101210.28
2023-01-08T03:30:44.374Z,101210.61
2023-01-08T03:31:49.078Z,101212.64
2023-01-08T03:32:54.918Z,101207.86
2023-01-08T03:34:00.565Z,101210.45
2023-01-08T03:35:07.336Z,101211.23
2023-01-08T03:36:14.855Z,101207.07
2023-01-08T03:37:23.412Z,101210.77
2023-01-08T03:38:42.751Z,101210.89
2023-01-08T03:39:52.614Z,101209.13
2023-01-08T03:41:06.519Z,101209.69
2023-01-08T03:42:14.221Z,101208.00
2023-01-08T03:43:17.568Z,101205.27
2023-01-08T03:44:20.611Z,101204.81
2023-01-08T03:45:26.114Z,101207.02
2023-01-08T03:46:33.297Z,101204.13
2023-01-08T03:47:38.401Z,101207.45
2023-01-08T03:48:42.474Z,101200.60
2023-01-08T03:49:47.153Z,101206.65
2023-01-08T03:50:50.178Z,101203.26
2023-01-08T03:51:53.234Z,101205.63
2023-01-08T03:52:56.330Z,101204.17
2023-01-08T03:54:00.031Z,101205.86
2023-01-08T03:55:04.407Z,101206.90
2023-01-08T03:56:07.796Z,101208.48
2023-01-08T03:57:10.773Z,101208.80
2023-01-08T03:58:13.743Z,101205.88
2023-01-08T03:59:17.880Z,101207.69
2023-01-08T04:00:21.414Z,101206.80
2023-01-08T04:01:25.066Z,101205.63
2023-01-08T04:02:28.261Z,101208.23
2023-01-08T04:03:31.424Z,101209.23
2023-01-08T04:04:34.901Z,101210.75
2023-01-08T04:05:38.190Z,101209.79
2023-01-08T04:06:41.309Z,101211.86
2023-01-08T04:07:44.287Z,101214.19
2023-01-08T04:08:48.862Z,101214.79
2023-01-08T04:09:51.984Z,101210.94
2023-01-08T04:10:55.057Z,101213.29
2023-01-08T04:11:58.066Z,101213.52
2023-01-08T04:13:01.082Z,101211.64
2023-01-08T04:14:04.321Z,101213.46
2023-01-08T04:15:07.911Z,101208.81
2023-01-08T04:16:11.058Z,101203.69
2023-01-08T04:17:14.316Z,101203.13
2023-01-08T04:18:18.325Z,101202.73
2023-01-08T04:19:21.347Z,101202.30
2023-01-08T04:20:24.362Z,101199.84
2023-01-08T04:21:27.501Z,101196.32
2023-01-08T04:22:30.692Z,101192.80
2023-01-08T04:23:33.648Z,101193.79
2023-01-08T04:24:36.573Z,101188.81
2023-01-08T04:25:39.600Z,101189.01
2023-01-08T04:26:44.255Z,101184.95
2023-01-08T04:27:47.256Z,101185.88
2023-01-08T04:28:50.207Z,101185.81
2023-01-08T04:29:53.187Z,101187.67
2023-01-08T04:30:56.176Z,101190.07
2023-01-08T04:32:00.427Z,101189.70
2023-01-08T04:33:03.432Z,101189.50
2023-01-08T04:34:06.437Z,101195.05
2023-01-08T04:35:10.112Z,101192.90
2023-01-08T04:36:13.774Z,101189.71
2023-01-08T04:37:16.956Z,101190.77
2023-01-08T04:38:19.869Z,101181.42
2023-01-08T04:39:22.823Z,101179.84
2023-01-08T04:40:25.841Z,101177.23
2023-01-08T04:41:29.015Z,101181.02
2023-01-08T04:42:32.385Z,101173.64
2023-01-08T04:43:35.516Z,101174.34
2023-01-08T04:44:38.690Z,101170.35
2023-01-08T04:45:41.808Z,101168.18
2023-01-08T04:46:44.796Z,101167.98
2023-01-08T04:47:48.125Z,101166.16
2023-01-08T04:48:51.780Z,101164.89
2023-01-08T04:49:54.762Z,101165.39
2023-01-08T04:50:59.079Z,101166.62
2023-01-08T04:52:02.214Z,101169.34
2023-01-08T04:53:05.395Z,101163.92
2023-01-08T04:54:09.141Z,101160.61
2023-01-08T04:55:12.094Z,101156.51
2023-01-08T04:56:15.181Z,101156.66
2023-01-08T04:57:18.104Z,101153.56
2023-01-08T04:58:21.505Z,101149.22
2023-01-08T04:59:24.407Z,101155.38
2023-01-08T05:00:27.582Z,101153.23
2023-01-08T05:01:30.793Z,101158.94
2023-01-08T05:02:34.569Z,101160.23
2023-01-08T05:03:37.850Z,101164.42
2023-01-08T05:04:40.859Z,101159.95
2023-01-08T05:05:43.806Z,101165.10
2023-01-08T05:06:46.808Z,101165.10
2023-01-08T05:07:49.892Z,101165.63
2023-01-08T05:08:53.101Z,101166.45
2023-01-08T05:09:56.155Z,101161.52
2023-01-08T05:11:00.115Z,101156.48
2023-01-08T05:12:03.186Z,101150.72
2023-01-08T05:13:06.163Z,101144.66
2023-01-08T05:14:09.144Z,101143.10
2023-01-08T05:15:12.328Z,101138.52
2023-01-08T05:16:15.939Z,101135.19
2023-01-08T05:17:18.950Z,101132.59
2023-01-08T05:18:21.970Z,101125.36
2023-01-08T05:19:25.159Z,101126.02
2023-01-08T05:20:29.242Z,101116.66
2023-01-08T05:21:32.468Z,101115.53
2023-01-08T05:22:35.773Z,101108.27
2023-01-08T05:23:38.799Z,101106.02
2023-01-08T05:24:42.008Z,101098.98
2023-01-08T05:25:44.944Z,101096.63
2023-01-08T05:26:48.233Z,101099.06
2023-01-08T05:27:51.234Z,101094.09
2023-01-08T05:28:54.215Z,101094.55
2023-01-08T05:29:57.174Z,101097.57
2023-01-08T05:31:00.257Z,101098.88
2023-01-08T05:32:03.353Z,101094.30
2023-01-08T05:33:06.349Z,101090.58
2023-01-08T05:34:09.690Z,101093.17
2023-01-08T05:35:13.097Z,101096.04
2023-01-08T05:36:16.038Z,101094.17
2023-01-08T05:37:18.935Z,101092.80
2023-01-08T05:38:22.721Z,101089.52
2023-01-08T05:39:25.741Z,101087.19
2023-01-08T05:40:28.867Z,101084.99
2023-01-08T05:41:32.078Z,101081.40
2023-01-08T05:42:35.633Z,101082.59
2023-01-08T05:43:38.586Z,101080.27
2023-01-08T05:44:41.543Z,101077.80
2023-01-08T05:45:44.583Z,101076.14
2023-01-08T05:46:47.788Z,101074.91
2023-01-08T05:47:50.836Z,101069.23
2023-01-08T05:48:53.860Z,101065.59
2023-01-08T05:49:56.922Z,101064.64
2023-01-08T05:51:00.179Z,101061.44
2023-01-08T05:52:03.625Z,101053.59
2023-01-08T05:53:08.099Z,101049.47
2023-01-08T05:54:11.189Z,101047.24
2023-01-08T05:55:14.332Z,101044.23
2023-01-08T05:56:17.339Z,101043.36
2023-01-08T05:57:20.444Z,101041.88
2023-01-08T05:58:23.434Z,101041.08
2023-01-08T05:59:26.510Z,101038.05
2023-01-08T06:00:30.690Z,101039.52
2023-01-08T06:01:33.797Z,101042.81
2023-01-08T06:02:36.865Z,101043.28
2023-01-08T06:03:40.123Z,101044.88
2023-01-08T06:04:43.896Z,101041.73
2023-01-08T06:05:46.811Z,101049.52
2023-01-08T06:06:49.781Z,101052.29
2023-01-08T06:07:52.805Z,101049.30
2023-01-08T06:08:55.742Z,101054.63
2023-01-08T06:09:58.744Z,101054.02
2023-01-08T06:11:06.756Z,101052.90
2023-01-08T06:12:09.840Z,101042.78
2023-01-08T06:13:12.898Z,101045.61
2023-01-08T06:14:17.103Z,101042.39
2023-01-08T06:15:20.019Z,101034.67
2023-01-08T06:16:23.041Z,101035.00
2023-01-08T06:17:26.155Z,101036.54
2023-01-08T06:18:30.115Z,101029.48
2023-01-08T06:19:33.042Z,101028.11
2023-01-08T06:20:38.231Z,101021.39
2023-01-08T06:21:41.167Z,101020.01
2023-01-08T06:22:44.328Z,101019.07
2023-01-08T06:23:47.306Z,101017.91
2023-01-08T06:24:50.333Z,101020.80
2023-01-08T06:25:54.664Z,101017.31
2023-01-08T06:26:57.829Z,101013.45
2023-01-08T06:28:00.851Z,101006.63
2023-01-08T06:29:04.148Z,101009.03
2023-01-08T06:30:07.952Z,101002.85
2023-01-08T06:31:11.014Z,100998.33
2023-01-08T06:32:13.983Z,101008.05
2023-01-08T06:33:19.581Z,101009.29
2023-01-08T06:34:24.053Z,101012.14
2023-01-08T06:35:27.960Z,101011.61
2023-01-08T06:36:30.943Z,101013.60
2023-01-08T06:37:33.879Z,101015.38
2023-01-08T06:38:37.431Z,101018.46
2023-01-08T06:39:40.467Z,101018.05
2023-01-08T06:40:43.650Z,101023.08
2023-01-08T06:41:46.841Z,101027.58
2023-01-08T06:42:49.843Z,101023.05
2023-01-08T06:43:52.771Z,101018.52
2023-01-08T06:44:55.709Z,101022.63
2023-01-08T06:45:58.883Z,101018.56
2023-01-08T06:47:01.897Z,101010.58
2023-01-08T06:48:06.720Z,101013.08
2023-01-08T06:49:10.269Z,101012.67
2023-01-08T06:50:13.339Z,101008.52
2023-01-08T06:51:16.256Z,101007.38
2023-01-08T06:52:19.614Z,101006.45
2023-01-08T06:53:22.824Z,101006.79
2023-01-08T06:54:25.799Z,101006.16
2023-01-08T06:55:28.799Z,101005.02
2023-01-08T06:56:32.211Z,101002.80
2023-01-08T06:57:36.776Z,101006.08
2023-01-08T06:58:40.016Z,101014.15
2023-01-08T06:59:43.894Z,101013.33
2023-01-08T07:00:47.174Z,101019.22
2023-01-08T07:01:51.151Z,101019.75
2023-01-08T07:02:55.618Z,101025.04
2023-01-08T07:03:58.924Z,101020.00
2023-01-08T07:05:01.828Z,101020.83
2023-01-08T07:06:05.156Z,101016.08
2023-01-08T07:07:08.167Z,101015.17
2023-01-08T07:08:16.068Z,101016.20
2023-01-08T07:09:19.187Z,101020.22
2023-01-08T07:10:22.427Z,101020.91
2023-01-08T07:11:25.459Z,101023.34
2023-01-08T07:12:28.561Z,101025.86
2023-01-08T07:13:31.495Z,101027.96
2023-01-08T07:14:34.440Z,101026.07
2023-01-08T07:15:37.482Z,101025.97
2023-01-08T07:16:40.576Z,101026.50
2023-01-08T07:17:43.655Z,101024.47
2023-01-08T07:18:46.846Z,101025.64
2023-01-08T07:19:50.169Z,101018.81
2023-01-08T07:20:53.193Z,101025.10
2023-01-08T07:21:56.267Z,101023.45
2023-01-08T07:23:09.091Z,101014.42
2023-01-08T07:24:12.210Z,101017.42
2023-01-08T07:25:15.277Z,101021.23
2023-01-08T07:26:18.475Z,101015.20
2023-01-08T07:27:21.374Z,101014.40
2023-01-08T07:28:24.390Z,101019.29
2023-01-08T07:29:27.364Z,101012.21
2023-01-08T07:30:30.845Z,101013.73
2023-01-08T07:31:34.042Z,101010.02
2023-01-08T07:32:36.982Z,101010.45
2023-01-08T07:33:39.920Z,101008.78
2023-01-08T07:34:42.966Z,101012.73
2023-01-08T07:35:56.112Z,101004.59
2023-01-08T07:36:59.015Z,101007.88
2023-01-08T07:38:01.975Z,101010.64
2023-01-08T07:39:05.291Z,101012.04
2023-01-08T07:40:10.078Z,101009.18
2023-01-08T07:41:13.316Z,101016.06
2023-01-08T07:42:16.522Z,101017.52
2023-01-08T07:43:20.085Z,101015.96
2023-01-08T07:44:23.121Z,101015.92
2023-01-08T07:45:27.389Z,101013.97
2023-01-08T07:46:30.793Z,101009.58
2023-01-08T07:47:33.955Z,101010.17
2023-01-08T07:48:36.963Z,101013.24
2023-01-08T07:49:39.964Z,101005.89
2023-01-08T07:50:44.046Z,101001.05
2023-01-08T07:51:49.442Z,101001.38
2023-01-08T07:52:52.444Z,101000.48
2023-01-08T07:53:56.802Z,101007.09
2023-01-08T07:54:59.894Z,101006.05
2023-01-08T07:56:08.916Z,101004.45
2023-01-08T07:57:11.981Z,101008.16
2023-01-08T07:58:15.220Z,101009.09
2023-01-08T07:59:18.201Z,101011.81
2023-01-08T08:00:21.381Z,101010.85
2023-01-08T08:01:26.327Z,101010.25
2023-01-08T08:02:29.924Z,101013.08
2023-01-08T08:03:33.396Z,101016.27
2023-01-08T08:04:36.477Z,101013.20
2023-01-08T08:05:39.484Z,101014.30
2023-01-08T08:06:42.429Z,101014.27
2023-01-08T08:07:45.501Z,101006.13
2023-01-08T08:08:48.542Z,101011.55
2023-01-08T08:09:51.501Z,101006.58
2023-01-08T08:10:54.482Z,101003.95
2023-01-08T08:11:57.401Z,101002.71
2023-01-08T08:13:00.369Z,101005.02
2023-01-08T08:14:03.485Z,101001.09
2023-01-08T08:15:07.210Z,101002.95
2023-01-08T08:16:11.412Z,101005.91
2023-01-08T08:17:14.541Z,101004.77
2023-01-08T08:18:17.718Z,101005.00
2023-01-08T08:19:20.615Z,101004.66
2023-01-08T08:20:24.160Z,101007.57
2023-01-08T08:21:29.442Z,101008.34
2023-01-08T08:22:32.679Z,101011.46
2023-01-08T08:23:36.763Z,101012.86
2023-01-08T08:24:40.168Z,101009.73
2023-01-08T08:25:43.374Z,101014.39
2023-01-08T08:26:46.481Z,101012.27
2023-01-08T08:27:49.387Z,101014.49
2023-01-08T08:28:52.333Z,101006.51
2023-01-08T08:29:55.391Z,101003.36
2023-01-08T08:30:58.686Z,101003.52
2023-01-08T08:32:01.874Z,101000.27
2023-01-08T08:33:06.482Z,100993.65
2023-01-08T08:34:09.514Z,100991.16
2023-01-08T08:35:12.674Z,100983.88
2023-01-08T08:36:15.992Z,100981.05
2023-01-08T08:37:19.005Z,100979.35
2023-01-08T08:38:23.963Z,100975.63
2023-01-08T08:39:27.294Z,100976.09
2023-01-08T08:40:30.742Z,100978.38
2023-01-08T08:41:33.743Z,100980.91
2023-01-08T08:42:37.084Z,100976.69
2023-01-08T08:43:40.260Z,100983.56
2023-01-08T08:44:43.809Z,100977.92
2023-01-08T08:45:46.870Z,100981.67
2023-01-08T08:46:50.059Z,100975.96
2023-01-08T08:47:53.206Z,100976.03
2023-01-08T08:48:56.199Z,100976.27
2023-01-08T08:49:59.216Z,100976.69
2023-01-08T08:51:02.225Z,100978.09
2023-01-08T08:52:05.559Z,100979.06
2023-01-08T08:53:10.121Z,100976.04
2023-01-08T08:54:13.063Z,100971.38
2023-01-08T08:55:17.420Z,100969.74
2023-01-08T08:56:20.584Z,100966.84
2023-01-08T08:57:27.607Z,100967.31
2023-01-08T08:58:30.650Z,100964.95
2023-01-08T08:59:33.772Z,100963.52
2023-01-08T09:00:38.488Z,100967.27
2023-01-08T09:01:41.834Z,100961.76
2023-01-08T09:02:45.169Z,100959.27
2023-01-08T09:03:48.636Z,100956.73
2023-01-08T09:04:51.616Z,100953.41
2023-01-08T09:05:54.555Z,100955.67
2023-01-08T09:06:57.579Z,100954.20
2023-01-08T09:08:00.787Z,100956.86
2023-01-08T09:09:04.157Z,100960.58
2023-01-08T09:10:08.243Z,100965.36
2023-01-08T09:11:13.527Z,100958.05
2023-01-08T09:12:17.311Z,100962.05
2023-01-08T09:13:20.672Z,100965.11
2023-01-08T09:14:23.925Z,100961.59
2023-01-08T09:15:27.210Z,100956.43
2023-01-08T09:16:30.246Z,100960.61
2023-01-08T09:17:34.132Z,100957.42
2023-01-08T09:18:37.348Z,100960.35
2023-01-08T09:19:40.370Z,100960.84
2023-01-08T09:20:43.457Z,100963.65
2023-01-08T09:21:46.546Z,100964.90
2023-01-08T09:22:49.599Z,100961.34
2023-01-08T09:23:52.547Z,100956.38
2023-01-08T09:24:55.537Z,100955.37
2023-01-08T09:26:00.416Z,100955.78
2023-01-08T09:27:03.592Z,100955.22
2023-01-08T09:28:09.007Z,100954.46
2023-01-08T09:29:12.067Z,100952.50
2023-01-08T09:30:15.115Z,100951.83
2023-01-08T09:31:18.157Z,100948.91
2023-01-08T09:32:21.127Z,100946.65
2023-01-08T09:33:24.084Z,100943.38
2023-01-08T09:34:27.086Z,100944.30
2023-01-08T09:35:31.660Z,100941.45
2023-01-08T09:36:34.768Z,100940.30
2023-01-08T09:37:37.787Z,100940.14
2023-01-08T09:38:40.919Z,100941.03
2023-01-08T09:39:48.061Z,100938.61
2023-01-08T09:40:58.287Z,100940.75
2023-01-08T09:42:05.480Z,100940.02
2023-01-08T09:43:17.661Z,100939.40
2023-01-08T09:44:26.777Z,100933.54
2023-01-08T09:45:36.831Z,100932.84
2023-01-08T09:46:40.592Z,100927.16
2023-01-08T09:47:44.513Z,100922.00
2023-01-08T09:48:49.921Z,100924.83
2023-01-08T09:49:57.253Z,100920.90
2023-01-08T09:51:00.252Z,100926.92
2023-01-08T09:52:03.955Z,100918.91
2023-01-08T09:53:15.592Z,100916.45
2023-01-08T09:54:18.645Z,100921.53
2023-01-08T09:55:21.899Z,100915.67
2023-01-08T09:56:25.679Z,100916.95
2023-01-08T09:57:29.197Z,100913.65
2023-01-08T09:58:39.405Z,100912.64
2023-01-08T09:59:43.207Z,100911.01
2023-01-08T10:00:46.266Z,100906.11
2023-01-08T10:01:49.572Z,100905.77
2023-01-08T10:02:54.449Z,100904.27
2023-01-08T10:03:57.723Z,100903.45
2023-01-08T10:05:01.305Z,100903.13
2023-01-08T10:06:12.990Z,100901.03
2023-01-08T10:07:21.926Z,100897.33
2023-01-08T10:08:25.059Z,100897.55
2023-01-08T10:09:30.776Z,100895.86
2023-01-08T10:10:34.273Z,100889.89
2023-01-08T10:11:47.372Z,100889.48
2023-01-08T10:12:51.175Z,100893.78
2023-01-08T10:13:56.263Z,100888.86
2023-01-08T10:15:06.272Z,100888.21
2023-01-08T10:16:17.659Z,100894.28
2023-01-08T10:17:36.978Z,100887.02
2023-01-08T10:18:41.463Z,100883.65
2023-01-08T10:19:45.574Z,100883.52
2023-01-08T10:20:48.814Z,100888.51
2023-01-08T10:21:53.266Z,100881.66
2023-01-08T10:22:57.075Z,100882.55
2023-01-08T10:24:00.046Z,100881.30
2023-01-08T10:25:18.079Z,100889.51
2023-01-08T10:26:29.803Z,100883.25
2023-01-08T10:27:46.156Z,100881.98
2023-01-08T10:28:49.177Z,100884.25
2023-01-08T10:29:52.647Z,100883.20
2023-01-08T10:31:04.336Z,100885.86
2023-01-08T10:32:15.879Z,100880.91
2023-01-08T10:33:39.410Z,100873.23
2023-01-08T10:34:49.277Z,100866.02
2023-01-08T10:36:04.550Z,100860.30
2023-01-08T10:37:24.653Z,100860.09
2023-01-08T10:38:34.157Z,100861.19
2023-01-08T10:39:37.446Z,100859.92
2023-01-08T10:40:45.724Z,100859.96
2023-01-08T10:41:50.453Z,100853.17
2023-01-08T10:42:56.437Z,100855.86
2023-01-08T10:44:14.609Z,100840.94
2023-01-08T10:45:22.952Z,100845.33
2023-01-08T10:46:31.041Z,100845.64
2023-01-08T10:47:36.209Z,100845.00
2023-01-08T10:48:53.420Z,100847.96
2023-01-08T10:49:58.560Z,100841.52
2023-01-08T10:51:18.185Z,100841.84
2023-01-08T10:52:36.569Z,100843.91
2023-01-08T10:53:41.521Z,100841.64
2023-01-08T10:54:44.460Z,100848.70
2023-01-08T10:55:59.072Z,100842.70
2023-01-08T10:57:02.799Z,100835.06
2023-01-08T10:58:08.686Z,100836.36
2023-01-08T10:59:19.655Z,100841.63
2023-01-08T11:00:24.867Z,100834.73
2023-01-08T11:01:30.762Z,100835.62
2023-01-08T11:02:38.961Z,100833.23
2023-01-08T11:03:43.049Z,100826.73
2023-01-08T11:04:51.858Z,100823.05
2023-01-08T11:05:55.244Z,100829.60
2023-01-08T11:07:06.408Z,100833.83
2023-01-08T11:08:17.948Z,100833.80
2023-01-08T11:09:27.948Z,100829.19
2023-01-08T11:10:31.654Z,100822.30
2023-01-08T11:11:36.999Z,100824.23
2023-01-08T11:12:41.756Z,100827.85
2023-01-08T11:13:57.914Z,100820.04
2023-01-08T11:15:01.309Z,100822.97
2023-01-08T11:16:12.483Z,100821.80
2023-01-08T11:17:15.587Z,100824.10
2023-01-08T11:18:22.609Z,100825.83
2023-01-08T11:19:33.923Z,100825.67
2023-01-08T11:20:38.507Z,100824.29
2023-01-08T11:21:43.053Z,100822.40
2023-01-08T11:22:46.164Z,100822.99
2023-01-08T11:24:21.360Z,100825.63
2023-01-08T11:25:29.317Z,100821.48
2023-01-08T11:26:34.924Z,100825.56
2023-01-08T11:27:42.792Z,100821.91
2023-01-08T11:29:19.782Z,100817.29
2023-01-08T11:30:28.413Z,100816.05
2023-01-08T11:31:43.936Z,100813.63
2023-01-08T11:33:09.825Z,100816.92
2023-01-08T11:34:23.594Z,100818.36
2023-01-08T11:35:29.962Z,100816.22
2023-01-08T11:36:39.996Z,100812.42
2023-01-08T11:37:54.632Z,100808.61
2023-01-08T11:38:57.621Z,100808.31
2023-01-08T11:40:00.656Z,100806.69
2023-01-08T11:41:42.660Z,100805.38
2023-01-08T11:42:52.943Z,100803.45
2023-01-08T11:44:19.935Z,100801.42
2023-01-08T11:45:51.308Z,100797.95
2023-01-08T11:47:27.537Z,100793.36
2023-01-08T11:48:52.726Z,100796.19
2023-01-08T11:50:01.110Z,100793.42
2023-01-08T11:51:26.874Z,100790.42
2023-01-08T11:52:59.768Z,100791.67
2023-01-08T11:54:42.886Z,100785.30
2023-01-08T11:55:54.898Z,100780.79
2023-01-08T11:57:18.976Z,100784.46
2023-01-08T11:58:44.689Z,100774.80
2023-01-08T12:00:00.261Z,100777.71
2023-01-08T12:01:19.675Z,100775.23
2023-01-08T12:02:27.893Z,100776.86
2023-01-08T12:04:09.613Z,100772.23
2023-01-08T12:05:46.680Z,100765.87
2023-01-08T12:07:29.365Z,100764.23
2023-01-08T12:08:59.152Z,100757.89
2023-01-08T12:10:28.025Z,100761.88
2023-01-08T12:11:37.057Z,100752.06
2023-01-08T12:12:58.278Z,100749.55
2023-01-08T12:14:29.069Z,100745.02
2023-01-08T12:15:47.312Z,100748.48
2023-01-08T12:17:03.831Z,100738.70
2023-01-08T12:18:41.642Z,100738.14
2023-01-08T12:20:02.558Z,100737.70
2023-01-08T12:21:19.208Z,100735.64
2023-01-08T12:23:07.332Z,100736.03
2023-01-08T12:24:32.371Z,100739.39
2023-01-08T12:26:00.371Z,100739.70
2023-01-08T12:27:54.593Z,100743.73
2023-01-08T12:29:15.725Z,100745.43
2023-01-08T12:30:26.008Z,100745.91
2023-01-08T12:31:40.406Z,100736.73
2023-01-08T12:32:54.957Z,100737.76
2023-01-08T12:34:07.856Z,100730.60
2023-01-08T12:35:16.516Z,100726.27
2023-01-08T12:36:26.701Z,100724.08
2023-01-08T12:37:52.963Z,100725.36
2023-01-08T12:39:03.699Z,100729.81
2023-01-08T12:40:15.304Z,100733.91
2023-01-08T12:41:19.565Z,100730.02
2023-01-08T12:42:28.308Z,100721.67
2023-01-08T12:44:12.038Z,100712.13
2023-01-08T12:45:45.750Z,100707.67
2023-01-08T12:46:52.698Z,100703.12
2023-01-08T12:48:04.965Z,100707.51
2023-01-08T12:49:12.739Z,100705.80
2023-01-08T12:50:44.263Z,100710.24
2023-01-08T12:51:53.866Z,100708.31
2023-01-08T12:53:26.834Z,100702.96
2023-01-08T12:54:51.703Z,100700.21
2023-01-08T12:55:54.688Z,100692.23
2023-01-08T12:57:07.828Z,100696.70
2023-01-08T12:58:42.640Z,100693.95
2023-01-08T13:00:00.253Z,100692.58
2023-01-08T13:01:27.511Z,100688.55
2023-01-08T13:02:42.195Z,100688.63
2023-01-08T13:03:45.738Z,100684.44
2023-01-08T13:04:49.205Z,100684.52
2023-01-08T13:05:52.858Z,100682.42
2023-01-08T13:07:04.405Z,100679.36
2023-01-08T13:08:32.434Z,100679.58
2023-01-08T13:09:35.774Z,100675.89
2023-01-08T13:10:50.749Z,100676.16
2023-01-08T13:11:56.264Z,100676.92
2023-01-08T13:13:01.908Z,100671.44
2023-01-08T13:14:08.953Z,100668.94
2023-01-08T13:15:22.423Z,100670.77
2023-01-08T13:16:25.985Z,100668.77
2023-01-08T13:17:29.951Z,100664.48
2023-01-08T13:18:33.855Z,100659.75
2023-01-08T13:19:43.302Z,100664.56
2023-01-08T13:20:57.840Z,100658.17